createdAt,value
2022-08-07T00:01:43.828Z,16.49
2022-08-07T00:04:51.481Z,16.43
2022-08-07T00:07:59.757Z,16.43
2022-08-07T00:11:04.879Z,16.10
2022-08-07T00:14:11.451Z,16.29
2022-08-07T00:17:16.615Z,16.28
2022-08-07T00:20:29.736Z,16.20
2022-08-07T00:23:42.284Z,15.73
2022-08-07T00:26:58.970Z,16.17
2022-08-07T00:30:27.708Z,16.14
2022-08-07T00:33:32.778Z,16.00
2022-08-07T00:36:38.644Z,16.11
2022-08-07T00:39:54.277Z,15.67
2022-08-07T00:42:58.137Z,15.99
2022-08-07T00:46:04.493Z,16.04
2022-08-07T00:49:11.669Z,15.79
2022-08-07T00:52:28.882Z,15.64
2022-08-07T00:56:02.860Z,15.81
2022-08-07T00:59:00.913Z,15.62
2022-08-07T01:02:09.030Z,15.74
2022-08-07T01:05:31.020Z,15.78
2022-08-07T01:08:51.307Z,15.51
2022-08-07T01:12:27.804Z,15.18
2022-08-07T01:15:21.462Z,14.88
2022-08-07T01:18:29.152Z,14.68
2022-08-07T01:21:33.981Z,14.69
2022-08-07T01:24:42.458Z,14.85
2022-08-07T01:27:51.443Z,14.44
2022-08-07T01:30:57.314Z,14.30
2022-08-07T01:34:03.678Z,14.28
2022-08-07T01:37:17.139Z,14.38
2022-08-07T01:40:25.949Z,14.08
2022-08-07T01:43:38.168Z,14.23
2022-08-07T01:46:43.469Z,14.15
2022-08-07T01:49:47.841Z,14.16
2022-08-07T01:53:01.293Z,14.01
2022-08-07T01:56:14.224Z,14.01
2022-08-07T01:59:30.957Z,13.88
2022-08-07T02:03:18.175Z,13.89
2022-08-07T02:06:31.795Z,13.63
2022-08-07T02:09:54.724Z,13.51
2022-08-07T02:13:04.365Z,13.18
2022-08-07T02:16:28.600Z,13.45
2022-08-07T02:20:04.109Z,13.55
2022-08-07T02:23:04.097Z,13.62
2022-08-07T02:26:32.023Z,13.55
2022-08-07T02:29:48.780Z,13.10
2022-08-07T02:33:09.603Z,13.11
2022-08-07T02:36:30.136Z,13.11
2022-08-07T02:40:02.305Z,13.18
2022-08-07T02:43:11.690Z,13.11
2022-08-07T02:46:19.790Z,13.04
2022-08-07T02:49:32.796Z,13.16
2022-08-07T02:53:03.534Z,13.10
2022-08-07T02:56:21.062Z,12.85
2022-08-07T02:59:28.489Z,12.85
2022-08-07T03:02:36.894Z,13.14
2022-08-07T03:05:47.390Z,12.80
2022-08-07T03:08:53.100Z,12.78
2022-08-07T03:11:57.908Z,12.53
2022-08-07T03:15:12.056Z,12.40
2022-08-07T03:18:17.639Z,12.39
2022-08-07T03:21:25.558Z,12.41
2022-08-07T03:24:30.169Z,12.55
2022-08-07T03:27:58.803Z,12.08
2022-08-07T03:34:47.562Z,12.19
2022-08-07T03:38:09.665Z,12.41
2022-08-07T03:41:18.647Z,12.06
2022-08-07T03:44:42.836Z,12.34
2022-08-07T03:47:52.005Z,12.26
2022-08-07T03:50:59.416Z,12.39
2022-08-07T03:54:35.624Z,12.26
2022-08-07T03:58:08.729Z,12.05
2022-08-07T04:00:59.719Z,12.20
2022-08-07T04:04:05.710Z,12.01
2022-08-07T04:07:17.523Z,12.06
2022-08-07T04:10:23.489Z,12.12
2022-08-07T04:13:28.659Z,12.34
2022-08-07T04:16:58.728Z,12.21
2022-08-07T04:20:03.474Z,12.33
2022-08-07T04:23:19.461Z,12.30
2022-08-07T04:26:25.090Z,12.19
2022-08-07T04:29:48.668Z,12.38
2022-08-07T04:32:58.069Z,12.29
2022-08-07T04:36:06.620Z,12.39
2022-08-07T04:39:12.234Z,12.20
2022-08-07T04:42:16.284Z,12.51
2022-08-07T04:45:22.870Z,12.49
2022-08-07T04:48:55.446Z,12.48
2022-08-07T04:52:10.206Z,12.65
2022-08-07T04:58:14.421Z,11.95
2022-08-07T04:59:18.325Z,13.04
2022-08-07T05:02:25.216Z,13.08
2022-08-07T05:05:53.974Z,13.12
2022-08-07T05:09:02.673Z,13.81
2022-08-07T05:12:27.055Z,13.59
2022-08-07T05:15:39.490Z,13.87
2022-08-07T05:18:52.149Z,13.80
2022-08-07T05:22:01.807Z,14.24
2022-08-07T05:25:26.250Z,14.50
2022-08-07T05:28:40.592Z,14.40
2022-08-07T05:31:52.781Z,14.45
2022-08-07T05:35:03.447Z,14.96
2022-08-07T05:38:10.014Z,14.98
2022-08-07T05:41:16.933Z,14.96
2022-08-07T05:44:29.315Z,14.94
2022-08-07T05:47:38.539Z,15.20
2022-08-07T05:51:03.389Z,15.45
2022-08-07T05:54:29.906Z,15.74
2022-08-07T05:57:34.424Z,15.66
2022-08-07T06:00:41.039Z,15.81
2022-08-07T06:03:58.577Z,16.16
2022-08-07T06:07:09.484Z,16.57
2022-08-07T06:10:28.834Z,16.99
2022-08-07T06:14:13.032Z,18.25
2022-08-07T06:16:59.192Z,18.43
2022-08-07T06:20:25.231Z,19.04
2022-08-07T06:24:38.509Z,19.38
2022-08-07T06:27:03.501Z,19.11
2022-08-07T06:30:24.264Z,19.25
2022-08-07T06:33:34.852Z,19.73
2022-08-07T06:36:38.217Z,19.35
2022-08-07T06:40:16.463Z,19.25
2022-08-07T06:43:21.372Z,19.70
2022-08-07T06:46:35.255Z,20.38
2022-08-07T06:49:52.430Z,20.47
2022-08-07T06:53:49.135Z,20.63
2022-08-07T06:56:49.534Z,20.73
2022-08-07T07:00:13.246Z,21.49
2022-08-07T07:03:39.872Z,20.64
2022-08-07T07:07:00.733Z,22.13
2022-08-07T07:10:05.538Z,22.08
2022-08-07T07:13:13.397Z,22.01
2022-08-07T07:16:21.411Z,22.21
2022-08-07T07:19:57.858Z,21.74
2022-08-07T07:24:05.957Z,22.22
2022-08-07T07:26:34.728Z,22.53
2022-08-07T07:30:08.881Z,22.83
2022-08-07T07:33:11.841Z,22.23
2022-08-07T07:36:17.182Z,22.72
2022-08-07T07:39:25.693Z,22.93
2022-08-07T07:42:39.692Z,22.84
2022-08-07T07:46:53.334Z,23.42
2022-08-07T07:50:35.391Z,23.70
2022-08-07T07:52:35.885Z,23.66
2022-08-07T07:55:45.327Z,23.71
2022-08-07T07:59:01.525Z,23.83
2022-08-07T08:02:10.516Z,23.80
2022-08-07T08:05:17.570Z,23.68
2022-08-07T08:08:35.527Z,23.55
2022-08-07T08:11:59.365Z,23.85
2022-08-07T08:15:06.963Z,23.66
2022-08-07T08:18:17.860Z,23.35
2022-08-07T08:21:55.498Z,23.58
2022-08-07T08:25:42.296Z,23.18
2022-08-07T08:28:49.207Z,23.09
2022-08-07T08:31:59.075Z,23.33
2022-08-07T08:35:23.129Z,23.18
2022-08-07T08:38:40.568Z,23.39
2022-08-07T08:41:58.137Z,23.82
2022-08-07T08:45:13.970Z,23.24
2022-08-07T08:48:28.540Z,23.55
2022-08-07T08:51:49.432Z,23.63
2022-08-07T08:55:21.044Z,23.66
2022-08-07T08:58:50.433Z,23.59
2022-08-07T09:02:08.980Z,23.43
2022-08-07T09:05:37.214Z,23.79
2022-08-07T09:08:48.910Z,24.16
2022-08-07T09:12:31.413Z,23.93
2022-08-07T09:16:23.468Z,24.00
2022-08-07T09:19:50.899Z,23.51
2022-08-07T09:24:31.771Z,23.76
2022-08-07T09:26:24.003Z,23.62
2022-08-07T09:30:04.272Z,24.01
2022-08-07T09:34:53.610Z,24.44
2022-08-07T09:38:10.567Z,23.59
2022-08-07T09:41:25.039Z,23.57
2022-08-07T09:47:25.529Z,23.43
2022-08-07T09:48:19.084Z,23.82
2022-08-07T09:52:09.787Z,24.43
2022-08-07T09:55:28.720Z,23.97
2022-08-07T09:59:14.506Z,24.21
2022-08-07T10:02:36.616Z,23.62
2022-08-07T10:06:12.210Z,23.27
2022-08-07T10:09:42.870Z,23.94
2022-08-07T10:14:00.510Z,23.82
2022-08-07T10:17:16.509Z,23.80
2022-08-07T10:20:30.545Z,24.32
2022-08-07T10:24:04.746Z,24.18
2022-08-07T10:27:46.534Z,24.29
2022-08-07T10:30:56.252Z,23.96
2022-08-07T10:34:18.135Z,23.89
2022-08-07T10:38:00.449Z,24.53
2022-08-07T10:41:10.817Z,24.32
2022-08-07T10:44:37.404Z,24.37
2022-08-07T10:47:52.949Z,24.65
2022-08-07T10:51:01.253Z,24.39
2022-08-07T10:54:14.191Z,24.48
2022-08-07T10:57:34.546Z,24.33
2022-08-07T11:00:50.557Z,23.82
2022-08-07T11:04:31.451Z,24.05
2022-08-07T11:07:59.683Z,24.15
2022-08-07T11:11:15.225Z,24.07
2022-08-07T11:14:45.255Z,24.35
2022-08-07T11:18:03.349Z,24.41
2022-08-07T11:21:14.078Z,24.88
2022-08-07T11:24:25.531Z,24.56
2022-08-07T11:28:02.821Z,24.05
2022-08-07T11:31:11.392Z,24.54
2022-08-07T11:34:23.335Z,24.76
2022-08-07T11:37:58.271Z,24.11
2022-08-07T11:41:22.251Z,24.27
2022-08-07T11:44:52.792Z,24.22
2022-08-07T11:48:29.460Z,24.30
2022-08-07T11:51:53.615Z,23.85
2022-08-07T11:55:09.055Z,24.82
2022-08-07T11:58:33.515Z,24.16
2022-08-07T12:02:00.569Z,24.51
2022-08-07T12:05:28.230Z,24.25
2022-08-07T12:08:38.352Z,24.98
2022-08-07T12:12:09.201Z,24.99
2022-08-07T12:15:17.325Z,24.86
2022-08-07T12:18:50.632Z,25.00
2022-08-07T12:22:39.290Z,24.72
2022-08-07T12:26:06.082Z,25.10
2022-08-07T12:29:38.116Z,24.37
2022-08-07T12:32:49.189Z,24.80
2022-08-07T12:35:58.222Z,25.15
2022-08-07T12:39:09.208Z,24.68
2022-08-07T12:42:32.332Z,24.90
2022-08-07T12:45:52.326Z,25.06
2022-08-07T12:49:09.779Z,25.05
2022-08-07T12:52:37.441Z,24.85
2022-08-07T12:56:03.297Z,25.09
2022-08-07T12:59:09.595Z,25.16
2022-08-07T13:03:00.977Z,25.12
2022-08-07T13:06:27.122Z,24.95
2022-08-07T13:10:28.873Z,25.87
2022-08-07T13:13:46.834Z,25.35
2022-08-07T13:17:01.053Z,25.53
2022-08-07T13:20:10.670Z,25.16
2022-08-07T13:24:00.663Z,24.91
2022-08-07T13:26:47.342Z,25.10
2022-08-07T13:30:04.507Z,25.28
2022-08-07T13:34:33.354Z,25.09
2022-08-07T13:36:48.375Z,25.83
2022-08-07T13:40:36.459Z,25.19
2022-08-07T13:43:29.241Z,25.81
2022-08-07T13:46:49.331Z,25.52
2022-08-07T13:50:33.063Z,25.14
2022-08-07T13:53:24.661Z,25.43
2022-08-07T13:56:35.547Z,25.86
2022-08-07T13:59:48.318Z,25.80
2022-08-07T14:03:05.869Z,25.99
2022-08-07T14:06:16.602Z,25.88
2022-08-07T14:10:12.632Z,25.60
2022-08-07T14:12:55.580Z,25.59
2022-08-07T14:16:04.245Z,25.62
2022-08-07T14:20:39.101Z,26.03
2022-08-07T14:22:42.880Z,25.69
2022-08-07T14:25:59.284Z,26.08
2022-08-07T14:29:08.843Z,25.63
2022-08-07T14:32:29.873Z,25.84
2022-08-07T14:35:45.738Z,26.10
2022-08-07T14:38:53.573Z,25.85
2022-08-07T14:42:19.699Z,25.39
2022-08-07T14:48:53.959Z,26.23
2022-08-07T14:52:02.931Z,25.59
2022-08-07T14:55:17.765Z,25.89
2022-08-07T14:58:25.695Z,25.89
2022-08-07T15:01:42.537Z,26.13
2022-08-07T15:04:54.553Z,26.11
2022-08-07T15:07:59.395Z,26.03
2022-08-07T15:11:09.700Z,25.51
2022-08-07T15:17:57.578Z,26.02
2022-08-07T15:21:08.245Z,25.51
2022-08-07T15:25:12.961Z,25.66
2022-08-07T15:28:32.399Z,25.77
2022-08-07T15:34:50.758Z,25.39
2022-08-07T15:38:17.337Z,25.44
2022-08-07T15:42:42.533Z,25.45
2022-08-07T15:44:53.852Z,25.26
2022-08-07T15:48:01.909Z,25.31
2022-08-07T15:51:09.997Z,25.38
2022-08-07T15:54:17.121Z,25.82
2022-08-07T15:57:39.866Z,25.69
2022-08-07T16:00:53.717Z,25.76
2022-08-07T16:04:00.808Z,25.76
2022-08-07T16:08:29.131Z,25.44
2022-08-07T16:10:33.100Z,25.65
2022-08-07T16:14:10.421Z,25.54
2022-08-07T16:18:02.216Z,25.53
2022-08-07T16:21:57.028Z,25.50
2022-08-07T16:24:34.177Z,25.43
2022-08-07T16:27:48.299Z,25.29
2022-08-07T16:31:10.007Z,25.27
2022-08-07T16:34:24.127Z,25.51
2022-08-07T16:38:06.117Z,25.46
2022-08-07T16:41:41.694Z,25.55
2022-08-07T16:45:15.487Z,25.37
2022-08-07T16:50:20.672Z,25.34
2022-08-07T16:52:52.675Z,25.34
2022-08-07T16:56:06.641Z,25.20
2022-08-07T16:59:25.744Z,25.39
2022-08-07T17:03:57.722Z,25.30
2022-08-07T17:07:02.880Z,25.21
2022-08-07T17:10:32.318Z,25.11
2022-08-07T17:14:18.543Z,25.06
2022-08-07T17:17:44.303Z,25.30
2022-08-07T17:20:53.904Z,25.20
2022-08-07T17:24:17.898Z,25.00
2022-08-07T17:27:37.845Z,24.85
2022-08-07T17:31:16.043Z,24.93
2022-08-07T17:34:34.671Z,24.86
2022-08-07T17:38:05.522Z,24.83
2022-08-07T17:42:02.580Z,24.79
2022-08-07T17:44:58.736Z,24.72
2022-08-07T17:48:06.681Z,24.22
2022-08-07T17:51:23.041Z,24.38
2022-08-07T17:54:53.210Z,24.35
2022-08-07T17:58:04.229Z,24.22
2022-08-07T18:01:20.728Z,24.14
2022-08-07T18:04:34.834Z,24.16
2022-08-07T18:07:43.899Z,24.25
2022-08-07T18:12:08.365Z,23.76
2022-08-07T18:14:25.141Z,23.90
2022-08-07T18:18:46.694Z,23.75
2022-08-07T18:21:38.186Z,23.53
2022-08-07T18:24:34.509Z,23.70
2022-08-07T18:28:00.317Z,23.72
2022-08-07T18:31:08.467Z,23.13
2022-08-07T18:34:37.036Z,22.83
2022-08-07T18:38:58.483Z,23.03
2022-08-07T18:41:44.675Z,22.66
2022-08-07T18:45:44.657Z,22.19
2022-08-07T18:50:05.111Z,22.51
2022-08-07T18:52:38.150Z,22.07
2022-08-07T18:55:55.789Z,22.42
2022-08-07T18:59:47.808Z,21.95
2022-08-07T19:02:52.643Z,21.84
2022-08-07T19:06:16.323Z,21.54
2022-08-07T19:09:55.811Z,21.45
2022-08-07T19:13:10.437Z,21.56
2022-08-07T19:17:01.014Z,21.54
2022-08-07T19:20:05.553Z,21.50
2022-08-07T19:23:19.422Z,21.46
2022-08-07T19:27:02.029Z,21.66
2022-08-07T19:30:55.871Z,22.22
2022-08-07T19:33:42.075Z,22.27
2022-08-07T19:36:52.246Z,21.50
2022-08-07T19:40:01.547Z,21.28
2022-08-07T19:43:21.511Z,21.27
2022-08-07T19:46:32.366Z,20.96
2022-08-07T19:49:56.482Z,21.12
2022-08-07T19:54:35.262Z,20.73
2022-08-07T19:58:00.224Z,20.42
2022-08-07T19:59:57.278Z,20.13
2022-08-07T20:03:02.857Z,19.98
2022-08-07T20:06:15.373Z,20.00
2022-08-07T20:10:33.931Z,19.77
2022-08-07T20:12:59.399Z,19.62
2022-08-07T20:16:06.683Z,19.35
2022-08-07T20:19:22.984Z,19.25
2022-08-07T20:22:34.049Z,19.23
2022-08-07T20:25:50.744Z,19.25
2022-08-07T20:28:57.936Z,19.21
2022-08-07T20:32:03.903Z,19.09
2022-08-07T20:35:11.325Z,19.02
2022-08-07T20:38:23.222Z,18.92
2022-08-07T20:41:34.094Z,18.78
2022-08-07T20:44:45.403Z,18.62
2022-08-07T20:47:58.177Z,18.56
2022-08-07T20:51:04.723Z,18.59
2022-08-07T20:54:29.363Z,18.60
2022-08-07T20:57:47.367Z,18.55
2022-08-07T21:00:56.125Z,18.49
2022-08-07T21:04:21.873Z,18.34
2022-08-07T21:07:28.230Z,18.30
2022-08-07T21:10:37.298Z,18.09
2022-08-07T21:14:16.679Z,18.03
2022-08-07T21:18:03.949Z,18.02
2022-08-07T21:20:36.573Z,17.78
2022-08-07T21:23:50.577Z,17.76
2022-08-07T21:27:01.970Z,17.68
2022-08-07T21:30:14.337Z,17.54
2022-08-07T21:34:48.513Z,17.53
2022-08-07T21:38:13.265Z,17.54
2022-08-07T21:41:38.301Z,17.46
2022-08-07T21:45:41.992Z,17.46
2022-08-07T21:48:41.242Z,17.29
2022-08-07T21:52:04.262Z,17.15
2022-08-07T21:55:28.386Z,17.25
2022-08-07T21:58:45.862Z,17.14
2022-08-07T22:02:10.449Z,17.02
2022-08-07T22:05:43.838Z,17.01
2022-08-07T22:08:53.788Z,17.38
2022-08-07T22:12:07.311Z,17.20
2022-08-07T22:16:39.329Z,17.11
2022-08-07T22:18:45.615Z,16.89
2022-08-07T22:22:02.836Z,16.80
2022-08-07T22:25:26.352Z,16.67
2022-08-07T22:28:37.599Z,16.77
2022-08-07T22:32:05.572Z,16.51
2022-08-07T22:35:11.075Z,16.51
2022-08-07T22:38:29.759Z,16.25
2022-08-07T22:42:03.061Z,16.15
2022-08-07T22:46:04.215Z,16.13
2022-08-07T22:48:56.329Z,16.08
2022-08-07T22:52:19.564Z,15.64
2022-08-07T22:55:59.600Z,15.96
2022-08-07T22:59:37.283Z,15.80
2022-08-07T23:03:00.582Z,15.89
2022-08-07T23:06:24.030Z,15.82
2022-08-07T23:10:06.104Z,15.81
2022-08-07T23:13:18.733Z,15.74
2022-08-07T23:16:46.911Z,15.30
2022-08-07T23:20:51.038Z,15.58
2022-08-07T23:24:21.117Z,15.39
2022-08-07T23:28:20.429Z,15.54
2022-08-07T23:31:18.762Z,15.39
2022-08-07T23:35:08.505Z,15.42
2022-08-07T23:38:42.887Z,15.26
2022-08-07T23:42:04.483Z,15.17
2022-08-07T23:45:43.513Z,15.13
2022-08-07T23:49:15.365Z,15.12
2022-08-07T23:53:00.214Z,15.04
2022-08-07T23:55:57.746Z,14.92
